Time;durP1;ratioP1;P1;durP2;ratioP2;P2;SDS_P1;SDS_P2;PMS_P1;PMS_P2;Temp;Humidity;BMP_temperature;BMP_pressure;BME280_temperature;BME280_humidity;BME280_pressure;Samples;Min_cycle;Max_cycle;Signal;HPM_P1;HPM_P2
2024/01/11 00:00:38;;;;;;;7.27;6.37;;;20.70;54.70;;;;;;5096585;28;20252;-69
2024/01/11 00:03:04;;;;;;;8.27;7.07;;;20.70;54.60;;;;;;5096351;28;20169;-68
2024/01/11 00:05:29;;;;;;;7.63;6.30;;;20.70;54.60;;;;;;5096304;28;20173;-69
2024/01/11 00:07:55;;;;;;;6.97;6.27;;;20.70;54.70;;;;;;5096382;28;20650;-69
2024/01/11 00:10:21;;;;;;;7.80;5.87;;;20.60;54.60;;;;;;5096486;28;20224;-69
2024/01/11 00:12:47;;;;;;;7.20;6.50;;;20.70;54.70;;;;;;5096033;28;20251;-69
2024/01/11 00:15:13;;;;;;;7.10;6.40;;;20.70;54.70;;;;;;5096228;28;20200;-69
2024/01/11 00:17:38;;;;;;;6.27;5.67;;;20.60;54.60;;;;;;5096060;28;20675;-68
2024/01/11 00:20:05;;;;;;;5.77;5.17;;;20.60;54.60;;;;;;5095558;28;20463;-69
2024/01/11 00:22:31;;;;;;;8.27;7.10;;;20.60;54.60;;;;;;5078074;28;20189;-69
2024/01/11 00:24:56;;;;;;;7.70;6.13;;;20.60;54.60;;;;;;5078095;28;20410;-69
2024/01/11 00:27:22;;;;;;;6.63;6.03;;;20.60;54.60;;;;;;5095866;28;20173;-69
2024/01/11 00:29:47;;;;;;;7.90;7.10;;;20.60;54.60;;;;;;5096189;28;20204;-70
2024/01/11 00:32:13;;;;;;;6.33;5.73;;;20.60;54.60;;;;;;5095973;28;20719;-69
2024/01/11 00:34:38;;;;;;;6.63;6.00;;;20.60;54.60;;;;;;5096145;28;20177;-69
2024/01/11 00:37:04;;;;;;;7.10;6.20;;;20.60;54.60;;;;;;5096063;28;20644;-69
2024/01/11 00:39:30;;;;;;;7.47;6.47;;;20.60;54.60;;;;;;5096007;28;20589;-69
2024/01/11 00:41:55;;;;;;;7.67;6.00;;;20.60;54.60;;;;;;5095772;28;20170;-69
2024/01/11 00:44:21;;;;;;;7.00;6.30;;;20.60;54.60;;;;;;5095833;28;20178;-69
2024/01/11 00:46:47;;;;;;;6.90;6.20;;;20.60;54.70;;;;;;5095487;28;20577;-69
2024/01/11 00:49:12;;;;;;;6.47;5.70;;;20.60;54.60;;;;;;5095392;28;20205;-69
2024/01/11 00:51:38;;;;;;;6.63;5.97;;;20.60;54.70;;;;;;5095978;28;20178;-69
2024/01/11 00:54:04;;;;;;;6.80;5.70;;;20.60;54.60;;;;;;5095822;28;20177;-69
2024/01/11 00:56:29;;;;;;;7.30;6.50;;;20.60;54.70;;;;;;5096014;28;20177;-69
2024/01/11 00:58:55;;;;;;;6.00;5.50;;;20.60;54.60;;;;;;5095437;28;20210;-69
2024/01/11 01:01:21;;;;;;;6.80;6.20;;;20.60;54.60;;;;;;5095664;28;20185;-69
2024/01/11 01:03:46;;;;;;;6.27;5.67;;;20.60;54.70;;;;;;5095400;28;20166;-69
2024/01/11 01:06:12;;;;;;;8.40;6.17;;;20.60;54.70;;;;;;5095429;28;20547;-69
2024/01/11 01:08:37;;;;;;;7.07;6.37;;;20.60;54.60;;;;;;5094963;28;20273;-69
2024/01/11 01:11:03;;;;;;;8.30;5.83;;;20.60;54.70;;;;;;5095115;28;20178;-69
2024/01/11 01:13:28;;;;;;;6.47;5.77;;;20.60;54.70;;;;;;5076740;28;20177;-69
2024/01/11 01:15:55;;;;;;;6.13;5.63;;;20.60;54.70;;;;;;5095537;28;20169;-68
2024/01/11 01:18:20;;;;;;;7.40;6.17;;;20.60;54.70;;;;;;5095107;28;20206;-69
2024/01/11 01:20:46;;;;;;;6.03;5.53;;;20.60;54.70;;;;;;5095514;28;20431;-69
2024/01/11 01:23:11;;;;;;;6.90;6.20;;;20.60;54.70;;;;;;5095107;28;21015;-70
2024/01/11 01:25:37;;;;;;;6.60;5.40;;;20.50;54.60;;;;;;5095200;28;20534;-69
2024/01/11 01:28:03;;;;;;;8.03;5.60;;;20.60;54.70;;;;;;5095180;28;20181;-69
2024/01/11 01:30:28;;;;;;;6.17;5.40;;;20.60;54.70;;;;;;5095121;28;20223;-68
2024/01/11 01:32:54;;;;;;;6.30;5.37;;;20.50;54.60;;;;;;5095190;28;20204;-69
2024/01/11 01:35:20;;;;;;;7.30;5.90;;;20.60;54.70;;;;;;5094881;28;20649;-69
2024/01/11 01:37:45;;;;;;;8.03;6.80;;;20.50;54.60;;;;;;5095106;28;20235;-69
2024/01/11 01:40:12;;;;;;;6.37;5.77;;;20.50;54.60;;;;;;5094847;28;20745;-69
2024/01/11 01:42:45;;;;;;;6.93;6.10;;;20.50;54.60;;;;;;5095143;28;20227;-69
2024/01/11 01:45:11;;;;;;;6.83;6.07;;;20.50;54.60;;;;;;5095194;28;20400;-69
2024/01/11 01:47:42;;;;;;;6.67;6.00;;;20.50;54.70;;;;;;5094629;28;20408;-69
2024/01/11 01:50:09;;;;;;;6.63;5.93;;;20.50;54.70;;;;;;5094938;28;20442;-69
2024/01/11 01:52:37;;;;;;;5.70;5.20;;;20.50;54.70;;;;;;5094728;28;20407;-69
2024/01/11 01:55:04;;;;;;;5.73;4.93;;;20.50;54.70;;;;;;5094448;28;20506;-69
2024/01/11 01:57:32;;;;;;;7.80;6.20;;;20.50;54.60;;;;;;5094609;28;20910;-69
2024/01/11 01:59:57;;;;;;;5.50;5.03;;;20.50;54.60;;;;;;5094484;28;20447;-69
2024/01/11 02:02:23;;;;;;;6.90;5.50;;;20.50;54.70;;;;;;5094418;28;20415;-69
2024/01/11 02:04:49;;;;;;;8.37;5.97;;;20.50;54.70;;;;;;5094125;28;20173;-69
2024/01/11 02:07:15;;;;;;;5.40;4.90;;;20.50;54.70;;;;;;5094124;28;20192;-68
2024/01/11 02:09:42;;;;;;;6.13;5.40;;;20.50;54.70;;;;;;5094218;28;20431;-69
2024/01/11 02:12:10;;;;;;;6.07;5.47;;;20.50;54.70;;;;;;5094117;28;20475;-69
2024/01/11 02:14:38;;;;;;;7.23;6.40;;;20.50;54.70;;;;;;5076059;28;20407;-67
2024/01/11 02:17:03;;;;;;;6.50;5.87;;;20.50;54.70;;;;;;5094002;28;20517;-69
2024/01/11 02:19:29;;;;;;;5.60;4.90;;;20.50;54.70;;;;;;5093843;28;20455;-69
2024/01/11 02:22:00;;;;;;;6.80;6.10;;;20.50;54.70;;;;;;5094024;28;20829;-68
2024/01/11 02:24:26;;;;;;;5.97;5.37;;;20.50;54.70;;;;;;5094052;28;20921;-69
2024/01/11 02:26:59;;;;;;;6.50;5.90;;;20.50;54.70;;;;;;5094088;28;20407;-69
2024/01/11 02:29:25;;;;;;;6.50;5.67;;;20.50;54.70;;;;;;5093977;28;20197;-69
2024/01/11 02:31:51;;;;;;;6.30;5.70;;;20.50;54.70;;;;;;5094046;28;20775;-69
2024/01/11 02:34:17;;;;;;;5.50;4.97;;;20.50;54.70;;;;;;5093818;28;20404;-69
2024/01/11 02:36:43;;;;;;;6.20;5.60;;;20.50;54.70;;;;;;5093911;28;20165;-69
2024/01/11 02:39:10;;;;;;;6.17;5.57;;;20.50;54.70;;;;;;5094028;28;20734;-69
2024/01/11 02:41:37;;;;;;;5.50;5.00;;;20.50;54.70;;;;;;5093696;28;20415;-69
2024/01/11 02:44:03;;;;;;;6.20;5.60;;;20.50;54.70;;;;;;5094019;28;20402;-69
2024/01/11 02:46:28;;;;;;;6.50;5.63;;;20.50;54.70;;;;;;5093681;28;20404;-69
2024/01/11 02:48:54;;;;;;;5.63;5.10;;;20.50;54.70;;;;;;5093862;28;20219;-69
2024/01/11 02:51:19;;;;;;;5.27;4.70;;;20.50;54.70;;;;;;5094150;28;20193;-69
2024/01/11 02:53:45;;;;;;;6.50;5.90;;;20.40;54.60;;;;;;5094044;28;20250;-68
2024/01/11 02:56:10;;;;;;;5.83;5.23;;;20.40;54.60;;;;;;5093533;28;20257;-69
2024/01/11 02:58:36;;;;;;;6.43;5.77;;;20.40;54.60;;;;;;5075389;28;20197;-69
2024/01/11 03:01:02;;;;;;;5.57;5.00;;;20.40;54.60;;;;;;5075108;28;20585;-69
2024/01/11 03:03:27;;;;;;;5.60;5.10;;;20.40;54.60;;;;;;5093847;28;20247;-69
2024/01/11 03:05:53;;;;;;;6.60;5.40;;;20.40;54.60;;;;;;5093769;28;20197;-69
2024/01/11 03:08:18;;;;;;;5.70;4.80;;;20.40;54.60;;;;;;5094103;28;20246;-68
2024/01/11 03:10:44;;;;;;;5.47;4.97;;;20.40;54.60;;;;;;5093675;28;20663;-69
2024/01/11 03:13:09;;;;;;;5.13;4.63;;;20.40;54.60;;;;;;5093823;28;20192;-68
2024/01/11 03:15:35;;;;;;;5.50;4.93;;;20.40;54.60;;;;;;5093571;28;20170;-69
2024/01/11 03:18:00;;;;;;;6.73;5.40;;;20.40;54.60;;;;;;5093553;28;20664;-69
2024/01/11 03:20:26;;;;;;;4.93;4.43;;;20.40;54.60;;;;;;5093871;28;20249;-69
2024/01/11 03:22:52;;;;;;;6.23;5.10;;;20.40;54.60;;;;;;5093236;28;20166;-69
2024/01/11 03:25:18;;;;;;;5.93;5.33;;;20.40;54.60;;;;;;5092971;28;20166;-69
2024/01/11 03:27:43;;;;;;;5.33;4.83;;;20.40;54.60;;;;;;5075260;28;20502;-69
2024/01/11 03:30:09;;;;;;;5.33;4.77;;;20.40;54.60;;;;;;5093557;28;20546;-69
2024/01/11 03:32:35;;;;;;;5.33;4.77;;;20.40;54.60;;;;;;5094133;28;20166;-69
2024/01/11 03:35:00;;;;;;;4.87;4.40;;;20.40;54.60;;;;;;5097191;28;20181;-69
2024/01/11 03:37:26;;;;;;;6.17;5.10;;;20.40;54.60;;;;;;5097090;28;20177;-69
2024/01/11 03:39:51;;;;;;;5.37;4.87;;;20.40;54.60;;;;;;5096630;28;20684;-69
2024/01/11 03:42:17;;;;;;;5.27;4.77;;;20.40;54.60;;;;;;5097573;28;20161;-69
2024/01/11 03:44:43;;;;;;;5.67;5.17;;;20.40;54.60;;;;;;5096908;28;20170;-69
2024/01/11 03:47:08;;;;;;;6.60;5.07;;;20.40;54.60;;;;;;5096708;28;20169;-70
2024/01/11 03:49:34;;;;;;;5.23;4.70;;;20.40;54.60;;;;;;5096747;28;20247;-69
2024/01/11 03:52:00;;;;;;;5.50;5.00;;;20.40;54.60;;;;;;5078664;28;20238;-69
2024/01/11 03:54:25;;;;;;;5.73;4.50;;;20.40;54.60;;;;;;5096887;28;20181;-69
2024/01/11 03:56:51;;;;;;;5.50;4.50;;;20.40;54.60;;;;;;5096950;28;20917;-69
2024/01/11 03:59:16;;;;;;;6.00;5.10;;;20.40;54.60;;;;;;5096913;28;20194;-69
2024/01/11 04:01:42;;;;;;;5.33;4.83;;;20.40;54.60;;;;;;5097014;28;20169;-69
2024/01/11 04:04:08;;;;;;;5.20;4.60;;;20.40;54.60;;;;;;5096594;28;20635;-69
2024/01/11 04:06:34;;;;;;;5.20;4.37;;;20.40;54.60;;;;;;5096839;28;20180;-69
2024/01/11 04:08:59;;;;;;;5.00;4.50;;;20.40;54.60;;;;;;5096268;28;20427;-69
2024/01/11 04:11:28;;;;;;;6.03;5.53;;;20.40;54.60;;;;;;5096355;28;20177;-69
2024/01/11 04:13:54;;;;;;;5.33;4.77;;;20.40;54.60;;;;;;5096288;28;20174;-69
2024/01/11 04:16:20;;;;;;;4.80;4.40;;;20.40;54.60;;;;;;5096300;28;20461;-69
2024/01/11 04:18:46;;;;;;;4.80;4.33;;;20.40;54.60;;;;;;5095937;28;20235;-69
2024/01/11 04:21:28;;;;;;;5.33;4.83;;;20.40;54.60;;;;;;5095708;28;20420;-69
2024/01/11 04:23:55;;;;;;;4.70;4.30;;;20.40;54.60;;;;;;5096307;28;20178;-69
2024/01/11 04:26:20;;;;;;;5.00;4.40;;;20.30;54.50;;;;;;5095905;28;20486;-69
2024/01/11 04:28:47;;;;;;;6.30;4.70;;;20.40;54.60;;;;;;5096413;28;20458;-69
2024/01/11 04:31:14;;;;;;;6.33;5.17;;;20.40;54.60;;;;;;5096130;28;20189;-68
2024/01/11 04:33:45;;;;;;;5.73;5.23;;;20.40;54.60;;;;;;5095964;28;20412;-69
2024/01/11 04:36:12;;;;;;;5.53;4.83;;;20.40;54.60;;;;;;5096247;28;20415;-69
2024/01/11 04:38:38;;;;;;;5.00;4.50;;;20.40;54.60;;;;;;5095950;28;20423;-69
2024/01/11 04:41:10;;;;;;;4.90;4.20;;;20.40;54.60;;;;;;5095846;28;20498;-69
2024/01/11 04:43:39;;;;;;;5.10;4.10;;;20.40;54.60;;;;;;5095639;28;20460;-69
2024/01/11 04:46:22;;;;;;;5.37;4.37;;;20.30;54.50;;;;;;5095211;28;20403;-69
2024/01/11 04:48:49;;;;;;;5.53;4.90;;;20.40;54.60;;;;;;5095733;28;20475;-69
2024/01/11 04:51:16;;;;;;;5.00;4.50;;;20.30;54.50;;;;;;5095887;28;20414;-69
2024/01/11 04:53:44;;;;;;;5.33;4.87;;;20.40;54.60;;;;;;5095507;28;20408;-69
2024/01/11 04:56:11;;;;;;;4.90;4.50;;;20.40;55.10;;;;;;5095957;28;20408;-69
2024/01/11 04:58:39;;;;;;;5.07;4.67;;;20.40;54.60;;;;;;5095140;28;20819;-69
2024/01/11 05:01:12;;;;;;;5.50;4.70;;;20.30;54.50;;;;;;5095095;28;20423;-70
2024/01/11 05:03:38;;;;;;;5.03;4.33;;;20.40;54.60;;;;;;5095439;28;20417;-68
2024/01/11 05:06:04;;;;;;;4.73;4.33;;;20.40;54.60;;;;;;5095143;28;20910;-69
2024/01/11 05:08:29;;;;;;;4.40;3.90;;;20.30;54.50;;;;;;5095100;28;20200;-69
2024/01/11 05:10:55;;;;;;;5.30;4.83;;;20.40;54.60;;;;;;5095497;28;20197;-69
2024/01/11 05:13:21;;;;;;;4.87;4.37;;;20.30;54.50;;;;;;5095207;28;20636;-68
2024/01/11 05:15:46;;;;;;;5.40;4.90;;;20.40;54.60;;;;;;5095109;28;20177;-70
2024/01/11 05:18:13;;;;;;;4.53;4.10;;;20.30;54.50;;;;;;5095127;28;20205;-69
2024/01/11 05:20:38;;;;;;;5.63;4.10;;;20.40;54.60;;;;;;5094943;28;20190;-70
2024/01/11 05:23:04;;;;;;;5.60;5.00;;;20.40;54.60;;;;;;5095416;28;20408;-69
2024/01/11 05:25:33;;;;;;;4.70;4.30;;;20.40;54.60;;;;;;5094928;28;20180;-69
2024/01/11 05:28:00;;;;;;;5.40;4.53;;;20.40;54.60;;;;;;5094805;28;20182;-69
2024/01/11 05:30:25;;;;;;;4.60;4.20;;;20.40;54.50;;;;;;5095075;28;20467;-68
2024/01/11 05:32:51;;;;;;;5.53;4.07;;;20.40;54.50;;;;;;5095423;28;20439;-69
2024/01/11 05:35:17;;;;;;;4.47;4.07;;;20.30;54.50;;;;;;5095151;28;20188;-69
2024/01/11 05:37:42;;;;;;;5.10;4.60;;;20.40;54.50;;;;;;5094665;28;20181;-69
2024/01/11 05:40:08;;;;;;;4.47;3.80;;;20.40;54.60;;;;;;5094714;28;20194;-69
2024/01/11 05:42:34;;;;;;;5.70;4.63;;;20.40;54.60;;;;;;5094499;28;20273;-69
2024/01/11 05:44:59;;;;;;;5.50;4.70;;;20.40;54.50;;;;;;5094403;28;20166;-67
2024/01/11 05:47:25;;;;;;;4.87;4.37;;;20.30;55.00;;;;;;5076523;28;20174;-69
2024/01/11 05:49:51;;;;;;;5.00;4.07;;;20.40;54.60;;;;;;5094365;28;20201;-69
2024/01/11 05:52:16;;;;;;;5.40;4.90;;;20.40;54.50;;;;;;5094305;28;20283;-68
2024/01/11 05:54:42;;;;;;;5.60;4.87;;;20.30;54.50;;;;;;5094229;28;20227;-69
2024/01/11 05:57:07;;;;;;;4.30;3.90;;;20.30;54.40;;;;;;5093230;28;20170;-69
2024/01/11 05:59:33;;;;;;;4.37;3.77;;;20.40;54.60;;;;;;5094417;28;20671;-69
2024/01/11 06:02:00;;;;;;;4.60;4.10;;;20.40;54.60;;;;;;5094345;28;20253;-69
2024/01/11 06:04:26;;;;;;;4.63;4.23;;;20.30;54.50;;;;;;5093931;28;20248;-69
2024/01/11 06:06:52;;;;;;;4.83;4.33;;;20.30;54.50;;;;;;5094723;28;20442;-68
2024/01/11 06:09:18;;;;;;;4.90;4.40;;;20.30;54.40;;;;;;5094130;28;20459;-69
2024/01/11 06:11:43;;;;;;;5.10;3.97;;;20.30;54.40;;;;;;5094527;28;20181;-68
2024/01/11 06:14:09;;;;;;;5.10;4.50;;;20.30;54.50;;;;;;5093546;28;20173;-69
2024/01/11 06:16:35;;;;;;;7.70;4.23;;;20.30;54.50;;;;;;5075497;28;20205;-69
2024/01/11 06:19:00;;;;;;;4.93;4.47;;;20.30;54.50;;;;;;5093324;28;20227;-69
2024/01/11 06:21:26;;;;;;;4.40;4.00;;;20.30;54.50;;;;;;5093806;28;20219;-69
2024/01/11 06:23:51;;;;;;;4.80;3.97;;;20.30;54.50;;;;;;5094333;28;20170;-69
2024/01/11 06:26:17;;;;;;;5.97;4.30;;;20.30;54.50;;;;;;5093531;28;20174;-69
2024/01/11 06:28:43;;;;;;;6.10;4.70;;;20.40;54.60;;;;;;5093604;28;20563;-70
2024/01/11 06:31:10;;;;;;;4.57;4.13;;;20.40;54.70;;;;;;5094238;28;20248;-67
2024/01/11 06:33:36;;;;;;;5.10;4.10;;;20.40;54.70;;;;;;5094216;28;20174;-69
2024/01/11 06:36:06;;;;;;;5.00;4.20;;;20.40;54.70;;;;;;5093632;28;20906;-69
2024/01/11 06:38:31;;;;;;;5.80;4.53;;;20.40;54.70;;;;;;5093558;28;20427;-68
2024/01/11 06:40:57;;;;;;;5.27;4.37;;;20.50;54.80;;;;;;5094238;28;20403;-68
2024/01/11 06:43:22;;;;;;;4.73;4.20;;;20.50;54.80;;;;;;5093541;28;20199;-69
2024/01/11 06:45:48;;;;;;;4.43;3.97;;;20.50;54.70;;;;;;5093709;28;20268;-69
2024/01/11 06:48:14;;;;;;;6.07;4.37;;;20.50;54.70;;;;;;5093575;28;20181;-69
2024/01/11 06:50:39;;;;;;;4.70;3.90;;;20.60;54.70;;;;;;5093557;28;20205;-67
2024/01/11 06:53:05;;;;;;;4.00;3.50;;;20.60;54.60;;;;;;5093636;28;20244;-69
2024/01/11 06:55:31;;;;;;;5.03;3.77;;;20.60;54.60;;;;;;5093645;28;20591;-67
2024/01/11 06:57:57;;;;;;;4.23;3.83;;;20.60;54.60;;;;;;5093481;28;20177;-69
2024/01/11 07:00:23;;;;;;;4.40;4.00;;;20.70;54.60;;;;;;5093479;28;20293;-69
2024/01/11 07:02:48;;;;;;;4.40;4.00;;;20.70;54.60;;;;;;5093700;28;21140;-69
2024/01/11 07:05:14;;;;;;;5.33;4.07;;;20.70;54.50;;;;;;5093665;28;20283;-69
2024/01/11 07:07:40;;;;;;;5.13;4.50;;;20.70;54.50;;;;;;5094242;28;20177;-69
2024/01/11 07:10:06;;;;;;;4.30;3.90;;;20.80;54.60;;;;;;5097092;28;20613;-69
2024/01/11 07:12:32;;;;;;;5.67;4.50;;;20.80;54.50;;;;;;5097665;28;20173;-68
2024/01/11 07:14:58;;;;;;;4.40;4.00;;;20.80;54.50;;;;;;5097953;28;20419;-69
2024/01/11 07:17:24;;;;;;;4.27;3.80;;;20.80;54.50;;;;;;5096835;28;20427;-68
2024/01/11 07:19:50;;;;;;;3.90;3.50;;;20.80;54.40;;;;;;5097763;28;20203;-68
2024/01/11 07:22:15;;;;;;;4.37;3.97;;;20.80;54.40;;;;;;5098280;28;21185;-68
2024/01/11 07:24:41;;;;;;;3.80;3.50;;;20.80;54.50;;;;;;5097756;28;20169;-69
2024/01/11 07:27:07;;;;;;;4.10;3.70;;;20.80;54.50;;;;;;5079218;28;20204;-68
2024/01/11 07:29:36;;;;;;;4.43;3.83;;;20.80;54.40;;;;;;5078569;28;20219;-69
2024/01/11 07:32:03;;;;;;;4.10;3.70;;;20.80;54.40;;;;;;5096958;28;20205;-68
2024/01/11 07:34:29;;;;;;;4.50;4.10;;;20.90;54.50;;;;;;5096929;28;20400;-69
2024/01/11 07:36:55;;;;;;;4.30;3.80;;;20.80;54.40;;;;;;5096583;28;21147;-69
2024/01/11 07:39:22;;;;;;;3.70;3.40;;;20.90;54.50;;;;;;5096677;28;20574;-67
2024/01/11 07:41:48;;;;;;;4.67;3.93;;;20.90;54.50;;;;;;5096977;28;20175;-68
2024/01/11 07:44:14;;;;;;;4.57;4.17;;;20.90;54.40;;;;;;5097114;28;20542;-68
2024/01/11 07:46:40;;;;;;;4.27;3.87;;;20.90;54.50;;;;;;5078853;28;20442;-69
2024/01/11 07:49:06;;;;;;;4.80;3.70;;;20.90;54.50;;;;;;5096289;28;20188;-68
2024/01/11 07:51:32;;;;;;;3.97;3.63;;;20.80;54.40;;;;;;5096912;28;20177;-69
2024/01/11 07:53:58;;;;;;;4.30;3.47;;;20.90;54.50;;;;;;5096427;28;20461;-66
2024/01/11 07:56:24;;;;;;;3.60;3.30;;;20.90;54.40;;;;;;5096459;28;21000;-68
2024/01/11 07:58:49;;;;;;;4.10;3.70;;;20.90;54.40;;;;;;5078166;28;20539;-68
2024/01/11 08:01:16;;;;;;;4.00;3.50;;;20.80;54.40;;;;;;5096711;28;20165;-68
2024/01/11 08:03:44;;;;;;;6.60;3.87;;;20.90;54.40;;;;;;5097061;28;20169;-69
2024/01/11 08:06:10;;;;;;;3.60;3.30;;;20.80;54.40;;;;;;5096830;28;21165;-69
2024/01/11 08:08:38;;;;;;;4.00;3.60;;;20.80;54.40;;;;;;5096414;28;20454;-68
2024/01/11 08:11:04;;;;;;;5.17;3.83;;;20.90;54.40;;;;;;5096833;28;20173;-68
2024/01/11 08:13:31;;;;;;;3.50;3.20;;;20.80;54.40;;;;;;5096514;28;20404;-69
2024/01/11 08:15:57;;;;;;;3.60;3.20;;;20.80;54.40;;;;;;5078233;28;20473;-69
2024/01/11 08:18:23;;;;;;;3.50;3.20;;;20.80;54.40;;;;;;5096225;28;20448;-69
2024/01/11 08:20:49;;;;;;;3.67;3.37;;;20.90;54.50;;;;;;5095238;28;21173;-69
2024/01/11 08:23:15;;;;;;;5.27;4.07;;;20.90;54.50;;;;;;5078144;28;20507;-69
2024/01/11 08:25:40;;;;;;;4.23;3.83;;;20.90;54.40;;;;;;5096769;28;20170;-67
2024/01/11 08:28:07;;;;;;;3.67;3.33;;;20.80;54.40;;;;;;5096123;28;20559;-69
2024/01/11 08:30:32;;;;;;;4.57;3.43;;;20.80;54.40;;;;;;5096290;28;20178;-68
2024/01/11 08:32:58;;;;;;;5.43;3.83;;;20.90;54.40;;;;;;5096156;28;20415;-68
2024/01/11 08:35:23;;;;;;;4.30;3.90;;;20.90;54.40;;;;;;5095520;28;20185;-69
2024/01/11 08:37:49;;;;;;;4.00;3.60;;;20.80;54.40;;;;;;5095840;28;20170;-67
2024/01/11 08:40:15;;;;;;;4.80;3.90;;;20.80;54.40;;;;;;5095527;28;20205;-68
2024/01/11 08:42:42;;;;;;;3.67;3.33;;;20.80;54.40;;;;;;5095816;28;20201;-69
2024/01/11 08:45:08;;;;;;;4.13;3.50;;;20.90;54.40;;;;;;5095807;28;20407;-68
2024/01/11 08:47:34;;;;;;;3.80;3.40;;;20.90;54.50;;;;;;5095901;28;20925;-68
2024/01/11 08:50:01;;;;;;;5.73;3.93;;;20.90;54.50;;;;;;5096462;28;20973;-69
2024/01/11 08:52:27;;;;;;;4.33;3.80;;;20.90;54.50;;;;;;5096192;28;20483;-68
2024/01/11 08:54:52;;;;;;;4.23;3.83;;;20.90;54.50;;;;;;5095930;28;20875;-68
2024/01/11 08:57:18;;;;;;;4.07;3.40;;;20.90;54.50;;;;;;5095347;28;20174;-68
2024/01/11 08:59:44;;;;;;;3.60;3.20;;;20.90;54.50;;;;;;5095618;28;20229;-69
2024/01/11 09:02:10;;;;;;;3.83;3.50;;;20.90;54.50;;;;;;5095709;28;20166;-67
2024/01/11 09:04:36;;;;;;;4.10;3.07;;;20.80;54.40;;;;;;5077435;28;20400;-65
2024/01/11 09:07:02;;;;;;;3.93;3.17;;;20.80;54.40;;;;;;5095260;28;20408;-68
2024/01/11 09:09:27;;;;;;;3.70;3.37;;;20.90;54.50;;;;;;5095644;28;20196;-68
2024/01/11 09:11:53;;;;;;;4.57;3.60;;;20.80;54.50;;;;;;5095525;28;20178;-68
2024/01/11 09:14:19;;;;;;;3.40;3.03;;;20.90;54.50;;;;;;5095850;28;20199;-68
2024/01/11 09:16:48;;;;;;;4.73;4.23;;;20.80;54.40;;;;;;5077168;28;20652;-68
2024/01/11 09:19:14;;;;;;;3.83;3.53;;;20.80;55.00;;;;;;5076780;28;20209;-69
2024/01/11 09:21:41;;;;;;;3.90;3.50;;;20.80;54.40;;;;;;5094570;28;21328;-68
2024/01/11 09:24:06;;;;;;;4.57;3.90;;;20.80;54.40;;;;;;5094032;28;20166;-68
2024/01/11 09:26:32;;;;;;;7.17;6.17;;;20.80;54.40;;;;;;5094303;28;20421;-68
2024/01/11 09:28:57;;;;;;;7.50;5.73;;;20.80;54.40;;;;;;5093910;28;20623;-68
2024/01/11 09:31:23;;;;;;;8.13;6.73;;;20.80;54.40;;;;;;5075890;28;20223;-69
2024/01/11 09:33:50;;;;;;;7.63;6.30;;;20.80;54.40;;;;;;5093954;28;20212;-68
2024/01/11 09:36:15;;;;;;;5.53;4.90;;;20.80;54.40;;;;;;5093945;28;20193;-68
2024/01/11 09:38:41;;;;;;;3.83;3.40;;;20.80;54.40;;;;;;5093701;28;20462;-69
2024/01/11 09:41:09;;;;;;;5.20;4.70;;;20.80;54.30;;;;;;5093761;28;21042;-68
2024/01/11 09:43:35;;;;;;;4.37;3.97;;;20.80;54.20;;;;;;5094109;28;20299;-67
2024/01/11 09:46:05;;;;;;;4.40;3.73;;;20.80;54.40;;;;;;5094469;28;20446;-68
2024/01/11 09:48:40;;;;;;;4.40;4.00;;;20.80;54.30;;;;;;5075634;28;20432;-67
2024/01/11 09:51:10;;;;;;;4.13;3.83;;;20.80;54.30;;;;;;5075980;28;20986;-68
2024/01/11 09:53:38;;;;;;;4.80;4.10;;;20.80;54.30;;;;;;5093787;28;20388;-68
2024/01/11 09:56:11;;;;;;;4.43;4.03;;;20.80;54.30;;;;;;5093931;28;20875;-69
2024/01/11 09:58:42;;;;;;;5.00;4.50;;;20.70;54.20;;;;;;5093854;28;20851;-68
2024/01/11 10:01:10;;;;;;;5.17;4.53;;;20.70;54.30;;;;;;5093958;28;20989;-68
2024/01/11 10:03:36;;;;;;;4.23;3.83;;;20.70;54.30;;;;;;5093605;28;20521;-68
2024/01/11 10:06:03;;;;;;;4.37;3.93;;;20.70;54.30;;;;;;5094369;28;20477;-68
2024/01/11 10:08:30;;;;;;;4.70;4.30;;;20.70;54.90;;;;;;5093861;28;20442;-69
2024/01/11 10:10:55;;;;;;;4.63;4.20;;;20.70;54.30;;;;;;5093980;28;20985;-67
2024/01/11 10:13:32;;;;;;;4.93;4.43;;;20.80;54.40;;;;;;5093802;28;20499;-69
2024/01/11 10:16:17;;;;;;;4.23;3.83;;;20.80;54.40;;;;;;5093610;28;20243;-68
2024/01/11 10:18:44;;;;;;;4.27;3.60;;;20.70;54.40;;;;;;5093531;28;21267;-69
2024/01/11 10:21:09;;;;;;;4.60;4.20;;;20.70;55.00;;;;;;5093425;28;20422;-68
2024/01/11 10:23:36;;;;;;;4.50;4.10;;;20.70;54.40;;;;;;5093279;28;20503;-68
2024/01/11 10:26:02;;;;;;;4.90;4.43;;;20.70;54.40;;;;;;5093963;28;20177;-68
2024/01/11 10:28:28;;;;;;;4.27;3.87;;;20.70;54.50;;;;;;5093050;28;20427;-69
2024/01/11 10:30:54;;;;;;;6.23;4.90;;;20.70;54.50;;;;;;5092952;28;20408;-74
2024/01/11 10:33:21;;;;;;;5.07;4.57;;;20.70;54.50;;;;;;5091435;28;20424;-70
2024/01/11 10:35:48;;;;;;;5.57;4.23;;;20.80;54.60;;;;;;5092677;28;20419;-70
2024/01/11 10:38:18;;;;;;;5.40;4.27;;;20.70;54.40;;;;;;5091911;28;20436;-70
2024/01/11 10:40:44;;;;;;;5.23;4.07;;;20.80;54.60;;;;;;5092626;28;21223;-70
2024/01/11 10:43:15;;;;;;;4.83;4.27;;;20.70;54.50;;;;;;5073571;28;20424;-69
2024/01/11 10:45:41;;;;;;;6.40;4.30;;;20.70;54.50;;;;;;5092109;28;20487;-69
2024/01/11 10:48:13;;;;;;;5.47;4.70;;;20.70;54.50;;;;;;5092113;28;20432;-70
2024/01/11 10:50:43;;;;;;;7.50;4.90;;;20.70;54.50;;;;;;5092260;28;20400;-70
2024/01/11 10:53:12;;;;;;;5.40;4.63;;;20.70;54.50;;;;;;5092005;28;20411;-70
2024/01/11 10:55:39;;;;;;;4.90;4.40;;;20.70;54.50;;;;;;5092410;28;20438;-70
2024/01/11 10:58:07;;;;;;;4.70;4.30;;;20.70;54.50;;;;;;5073927;28;20444;-70
2024/01/11 11:00:35;;;;;;;5.03;4.37;;;20.70;54.50;;;;;;5092279;28;20483;-69
2024/01/11 11:03:04;;;;;;;4.50;4.10;;;20.70;54.50;;;;;;5092307;28;20981;-70
2024/01/11 11:05:30;;;;;;;4.50;4.10;;;20.70;54.40;;;;;;5092837;28;20411;-69
2024/01/11 11:07:57;;;;;;;4.43;4.00;;;20.70;54.40;;;;;;5092827;28;20777;-70
2024/01/11 11:10:26;;;;;;;4.53;4.13;;;20.70;54.50;;;;;;5074823;28;20436;-70
2024/01/11 11:12:54;;;;;;;5.40;4.50;;;20.70;54.40;;;;;;5092745;28;20419;-69
2024/01/11 11:15:19;;;;;;;5.00;4.40;;;20.70;54.40;;;;;;5092867;28;20414;-69
2024/01/11 11:17:46;;;;;;;5.30;4.40;;;20.70;54.40;;;;;;5092626;28;20431;-70
2024/01/11 11:20:12;;;;;;;5.87;4.77;;;20.70;54.40;;;;;;5092741;28;20193;-68
2024/01/11 11:22:40;;;;;;;5.47;4.90;;;20.70;54.40;;;;;;5092660;28;20428;-69
2024/01/11 11:25:13;;;;;;;4.90;4.33;;;20.70;54.40;;;;;;5092788;28;20411;-69
2024/01/11 11:27:38;;;;;;;4.40;4.00;;;20.70;54.50;;;;;;5092658;28;20910;-69
2024/01/11 11:30:05;;;;;;;5.33;4.80;;;20.70;54.40;;;;;;5092249;28;20443;-70
2024/01/11 11:32:38;;;;;;;4.70;4.30;;;20.70;54.40;;;;;;5092886;28;20273;-67
2024/01/11 11:35:05;;;;;;;4.60;4.10;;;20.70;54.40;;;;;;5093138;28;20407;-69
2024/01/11 11:37:33;;;;;;;6.10;4.60;;;20.70;54.40;;;;;;5093192;28;20414;-67
2024/01/11 11:39:59;;;;;;;4.83;4.33;;;20.70;54.50;;;;;;5074501;28;20510;-68
2024/01/11 11:42:25;;;;;;;5.40;4.57;;;20.70;54.40;;;;;;5092441;28;20431;-69
2024/01/11 11:44:52;;;;;;;5.03;4.30;;;20.70;54.40;;;;;;5092465;28;20253;-69
2024/01/11 11:47:24;;;;;;;7.27;5.17;;;20.70;54.40;;;;;;5092089;28;20443;-69
2024/01/11 11:50:09;;;;;;;8.10;5.47;;;20.70;54.30;;;;;;5092692;28;20439;-69
2024/01/11 11:52:37;;;;;;;5.93;5.10;;;20.70;54.30;;;;;;5092307;28;20426;-68
2024/01/11 11:55:04;;;;;;;6.47;4.67;;;20.70;54.40;;;;;;5075448;28;20420;-69
2024/01/11 11:57:30;;;;;;;10.27;6.00;;;20.70;54.30;;;;;;5095829;28;20404;-69
2024/01/11 11:59:58;;;;;;;9.33;5.40;;;20.70;54.30;;;;;;5095333;28;20455;-69
2024/01/11 12:02:25;;;;;;;7.63;5.13;;;20.70;54.40;;;;;;5095632;28;20173;-69
2024/01/11 12:04:51;;;;;;;6.93;5.30;;;20.70;54.30;;;;;;5077439;28;20922;-69
2024/01/11 12:07:17;;;;;;;6.70;5.30;;;20.70;54.30;;;;;;5095194;28;20465;-69
2024/01/11 12:09:43;;;;;;;9.60;5.43;;;20.70;54.40;;;;;;5095146;28;20194;-68
2024/01/11 12:12:09;;;;;;;7.43;5.70;;;20.70;54.40;;;;;;5095717;28;20411;-69
2024/01/11 12:14:35;;;;;;;7.87;5.70;;;20.70;54.30;;;;;;5095366;28;20724;-69
2024/01/11 12:17:01;;;;;;;7.97;6.23;;;20.70;54.40;;;;;;5095223;28;20516;-70
2024/01/11 12:19:28;;;;;;;10.27;5.77;;;20.70;54.30;;;;;;5094913;28;20499;-70
2024/01/11 12:21:54;;;;;;;10.10;5.77;;;20.70;54.40;;;;;;5094635;28;20169;-71
2024/01/11 12:24:23;;;;;;;8.30;5.07;;;20.70;54.40;;;;;;5094361;28;20412;-69
2024/01/11 12:26:54;;;;;;;10.50;5.80;;;20.70;54.40;;;;;;5094455;28;20490;-70
2024/01/11 12:29:20;;;;;;;10.00;5.80;;;20.70;54.40;;;;;;5093761;28;20436;-69
2024/01/11 12:31:45;;;;;;;12.50;5.57;;;20.80;54.50;;;;;;5094115;28;20464;-68
2024/01/11 12:34:14;;;;;;;6.87;4.93;;;20.70;54.40;;;;;;5094065;28;20213;-69
2024/01/11 12:36:41;;;;;;;6.67;4.87;;;20.70;54.40;;;;;;5094068;28;20178;-69
2024/01/11 12:39:08;;;;;;;7.93;5.20;;;20.80;54.50;;;;;;5094153;28;20452;-69
2024/01/11 12:41:34;;;;;;;8.37;6.03;;;20.70;54.40;;;;;;5094298;28;20408;-68